Time;durP1;ratioP1;P1;durP2;ratioP2;P2;SDS_P1;SDS_P2;PMS_P1;PMS_P2;Temp;Humidity;BMP_temperature;BMP_pressure;BME280_temperature;BME280_humidity;BME280_pressure;Samples;Min_cycle;Max_cycle;Signal;HPM_P1;HPM_P2
2023/04/23 00:00:35;;;;;;;4.50;2.87;;;18.20;1.00;;;;;;4937232;29;20745;-84
2023/04/23 00:03:08;;;;;;;5.20;4.30;;;18.20;1.00;;;;;;4954081;28;20590;-85
2023/04/23 00:05:35;;;;;;;7.20;4.57;;;18.20;1.00;;;;;;4944808;28;20410;-83
2023/04/23 00:08:01;;;;;;;6.03;4.00;;;18.10;1.00;;;;;;4952718;28;20511;-83
2023/04/23 00:10:27;;;;;;;5.40;4.27;;;18.10;1.00;;;;;;4900438;28;20584;-82
2023/04/23 00:12:53;;;;;;;6.30;4.67;;;18.10;1.00;;;;;;4951283;29;20949;-82
2023/04/23 00:15:20;;;;;;;5.90;4.00;;;18.10;1.00;;;;;;4968963;28;20182;-83
2023/04/23 00:17:46;;;;;;;4.80;3.43;;;18.10;1.00;;;;;;4957256;28;20169;-83
2023/04/23 00:20:12;;;;;;;4.50;3.40;;;18.10;1.00;;;;;;4957576;28;21067;-83
2023/04/23 00:22:38;;;;;;;4.30;3.33;;;18.10;1.00;;;;;;4956279;29;20478;-83
2023/04/23 00:25:03;;;;;;;4.47;3.37;;;18.00;1.00;;;;;;4956973;29;20187;-83
2023/04/23 00:27:29;;;;;;;5.40;3.97;;;18.00;1.00;;;;;;4957446;28;20177;-83
2023/04/23 00:29:55;;;;;;;4.30;3.37;;;18.00;1.00;;;;;;4957381;28;20182;-82
2023/04/23 00:32:21;;;;;;;4.13;3.70;;;17.90;1.00;;;;;;4955874;28;20180;-82
2023/04/23 00:34:49;;;;;;;5.53;4.63;;;18.00;1.00;;;;;;4954943;28;20222;-81
2023/04/23 00:37:15;;;;;;;5.90;4.27;;;17.90;1.00;;;;;;4953222;28;20426;-82
2023/04/23 00:39:41;;;;;;;5.43;4.07;;;17.90;1.00;;;;;;4956718;29;20438;-81
2023/04/23 00:42:11;;;;;;;5.90;4.10;;;17.90;1.00;;;;;;4950411;28;20224;-82
2023/04/23 00:44:37;;;;;;;5.67;4.37;;;17.90;1.00;;;;;;4938031;29;20537;-82
2023/04/23 00:47:04;;;;;;;6.57;4.47;;;17.90;1.00;;;;;;4938126;29;20504;-84
2023/04/23 00:49:30;;;;;;;5.53;4.10;;;17.80;1.00;;;;;;4937944;29;20429;-82
2023/04/23 00:51:55;;;;;;;5.87;4.40;;;17.70;1.00;;;;;;4952557;29;20933;-82
2023/04/23 00:54:21;;;;;;;6.57;4.30;;;17.70;1.00;;;;;;4937659;29;20229;-81
2023/04/23 00:56:48;;;;;;;5.67;4.47;;;17.70;1.00;;;;;;4937404;29;20708;-82
2023/04/23 00:59:14;;;;;;;5.57;3.97;;;17.60;1.00;;;;;;4937831;29;20540;-81
2023/04/23 01:01:40;;;;;;;5.67;4.77;;;17.60;1.00;;;;;;4947862;29;20896;-82
2023/04/23 01:04:08;;;;;;;5.57;4.07;;;17.60;1.00;;;;;;4956556;28;20546;-82
2023/04/23 01:06:34;;;;;;;6.70;4.90;;;17.60;1.00;;;;;;4955633;28;20214;-83
2023/04/23 01:09:00;;;;;;;5.97;4.53;;;17.60;1.00;;;;;;4956524;29;20812;-82
2023/04/23 01:11:25;;;;;;;6.20;5.40;;;17.60;1.00;;;;;;4955586;29;20414;-81
2023/04/23 01:13:51;;;;;;;4.10;3.73;;;17.50;1.00;;;;;;4955764;29;20478;-81
2023/04/23 01:16:16;;;;;;;6.03;4.90;;;17.50;1.00;;;;;;4939287;29;20253;-82
2023/04/23 01:18:42;;;;;;;4.33;3.80;;;17.50;1.00;;;;;;4955338;29;20207;-81
2023/04/23 01:21:10;;;;;;;8.43;5.40;;;17.40;1.00;;;;;;4956511;29;20183;-81
2023/04/23 01:23:36;;;;;;;5.77;5.13;;;17.20;1.00;;;;;;4939106;29;20698;-81
2023/04/23 01:26:01;;;;;;;5.30;4.80;;;17.10;44.10;;;;;;4938742;29;20427;-82
2023/04/23 01:28:28;;;;;;;6.57;5.73;;;17.10;78.50;;;;;;4955529;28;20306;-81
2023/04/23 01:30:55;;;;;;;7.67;5.33;;;17.00;89.00;;;;;;4956385;29;20207;-81
2023/04/23 01:33:20;;;;;;;7.60;4.70;;;17.10;71.40;;;;;;4938985;29;20470;-81
2023/04/23 01:35:48;;;;;;;6.93;5.40;;;17.10;71.00;;;;;;4956095;29;20477;-83
2023/04/23 01:38:14;;;;;;;5.10;4.60;;;17.10;69.70;;;;;;4953222;28;20183;-81
2023/04/23 01:40:40;;;;;;;7.17;5.30;;;17.10;68.50;;;;;;4954444;29;20434;-82
2023/04/23 01:43:06;;;;;;;5.80;5.20;;;17.10;41.70;;;;;;4942622;29;20469;-81
2023/04/23 01:45:31;;;;;;;8.13;5.60;;;17.10;53.00;;;;;;4956153;28;20210;-82
2023/04/23 01:47:59;;;;;;;7.00;6.10;;;17.10;49.90;;;;;;4956081;28;20478;-82
2023/04/23 01:50:26;;;;;;;7.27;6.50;;;17.00;86.00;;;;;;4954693;28;20231;-82
2023/04/23 01:52:52;;;;;;;9.30;6.30;;;16.90;99.90;;;;;;4955781;28;20502;-82
2023/04/23 01:55:18;;;;;;;7.17;5.63;;;16.90;99.90;;;;;;4905036;28;20982;-82
2023/04/23 01:57:44;;;;;;;6.77;6.07;;;16.90;99.90;;;;;;4955561;29;20224;-81
2023/04/23 02:00:11;;;;;;;8.23;6.07;;;16.90;99.90;;;;;;4954493;29;20429;-81
2023/04/23 02:02:38;;;;;;;6.67;5.17;;;16.90;99.90;;;;;;4955529;28;20623;-81
2023/04/23 02:05:18;;;;;;;6.73;5.70;;;16.90;99.90;;;;;;4955566;28;20932;-84
2023/04/23 02:07:45;;;;;;;8.30;5.47;;;17.00;99.90;;;;;;4954842;28;20488;-81
2023/04/23 02:10:11;;;;;;;7.20;5.40;;;16.90;99.90;;;;;;4954427;28;20898;-81
2023/04/23 02:12:37;;;;;;;6.60;5.90;;;17.00;98.00;;;;;;4955407;28;20462;-86
2023/04/23 02:15:05;;;;;;;6.33;5.03;;;16.90;99.90;;;;;;4954710;28;20198;-85
2023/04/23 02:17:30;;;;;;;7.50;5.63;;;16.90;99.00;;;;;;4954162;29;20521;-81
2023/04/23 02:19:56;;;;;;;6.63;5.53;;;16.90;93.60;;;;;;4955484;29;20472;-81
2023/04/23 02:22:23;;;;;;;7.93;5.70;;;16.90;90.70;;;;;;4955339;28;20587;-81
2023/04/23 02:24:50;;;;;;;7.10;5.77;;;16.80;98.80;;;;;;4953557;29;20394;-83
2023/04/23 02:27:15;;;;;;;6.70;4.90;;;16.90;95.70;;;;;;4970233;28;20790;-82
2023/04/23 02:29:41;;;;;;;10.80;8.57;;;16.80;97.70;;;;;;4953695;29;20430;-83
2023/04/23 02:32:06;;;;;;;10.80;9.57;;;16.40;58.90;;;;;;4954030;28;20236;-85
2023/04/23 02:34:32;;;;;;;14.80;11.80;;;15.90;99.90;;;;;;4955146;29;20223;-82
2023/04/23 02:36:57;;;;;;;14.47;12.93;;;15.60;99.90;;;;;;4970046;28;20629;-82
2023/04/23 02:39:23;;;;;;;14.97;12.23;;;15.40;99.90;;;;;;4948855;28;20209;-83
2023/04/23 02:41:48;;;;;;;19.23;15.20;;;15.40;99.90;;;;;;4954966;29;20177;-84
2023/04/23 02:44:14;;;;;;;19.13;13.40;;;15.30;99.90;;;;;;4952907;29;20641;-83
2023/04/23 02:46:39;;;;;;;17.73;14.70;;;15.10;99.90;;;;;;4954870;29;20176;-83
2023/04/23 02:49:05;;;;;;;17.87;14.50;;;15.00;99.90;;;;;;4955033;28;20260;-83
2023/04/23 02:51:31;;;;;;;20.90;15.70;;;14.90;99.90;;;;;;4954735;28;20181;-84
2023/04/23 02:53:57;;;;;;;20.63;15.60;;;14.80;99.90;;;;;;4954759;28;20254;-83
2023/04/23 02:56:22;;;;;;;20.10;16.87;;;14.80;99.90;;;;;;4954507;28;20192;-85
2023/04/23 02:58:48;;;;;;;18.33;14.43;;;14.80;99.90;;;;;;4969849;28;20503;-83
2023/04/23 03:01:14;;;;;;;22.10;16.77;;;14.80;99.90;;;;;;4969456;28;20730;-83
2023/04/23 03:03:39;;;;;;;20.90;16.17;;;14.70;99.90;;;;;;4954850;28;20185;-84
2023/04/23 03:06:06;;;;;;;21.73;17.67;;;14.70;99.90;;;;;;4953442;29;20188;-84
2023/04/23 03:08:32;;;;;;;26.90;19.30;;;14.50;99.90;;;;;;4954888;28;20173;-83
2023/04/23 03:10:57;;;;;;;31.80;21.90;;;14.50;99.90;;;;;;4953294;28;20423;-83
2023/04/23 03:13:24;;;;;;;28.90;21.43;;;14.40;99.90;;;;;;4954526;28;20576;-83
2023/04/23 03:15:50;;;;;;;31.33;23.47;;;14.40;99.90;;;;;;4953717;28;20629;-83
2023/04/23 03:18:16;;;;;;;30.30;23.67;;;14.30;99.90;;;;;;4969565;28;20440;-85
2023/04/23 03:20:41;;;;;;;31.20;23.93;;;14.10;99.90;;;;;;4954702;28;20749;-84
2023/04/23 03:23:07;;;;;;;31.03;21.60;;;14.10;99.90;;;;;;4953310;29;20621;-84
2023/04/23 03:25:33;;;;;;;27.63;19.80;;;14.10;99.90;;;;;;4919547;28;20200;-87
2023/04/23 03:27:59;;;;;;;27.40;19.87;;;14.00;99.90;;;;;;4951104;29;20186;-83
2023/04/23 03:30:26;;;;;;;28.60;20.03;;;13.90;99.90;;;;;;4954529;29;20521;-83
2023/04/23 03:32:53;;;;;;;29.07;19.90;;;13.80;99.90;;;;;;4937169;29;20207;-84
2023/04/23 03:35:19;;;;;;;24.67;17.73;;;13.80;99.90;;;;;;4953347;28;20438;-83
2023/04/23 03:37:45;;;;;;;24.33;18.07;;;13.70;99.90;;;;;;4954341;29;20506;-83
2023/04/23 03:40:11;;;;;;;21.43;15.37;;;13.70;99.90;;;;;;4939908;29;20533;-83
2023/04/23 03:42:39;;;;;;;18.17;15.33;;;13.80;99.90;;;;;;4969267;28;20179;-85
2023/04/23 03:45:06;;;;;;;22.63;18.03;;;13.70;99.90;;;;;;4946429;29;20194;-86
2023/04/23 03:47:31;;;;;;;19.23;16.70;;;13.60;99.90;;;;;;4963960;28;20462;-85
2023/04/23 03:49:57;;;;;;;18.70;15.37;;;13.50;99.90;;;;;;4954125;28;20923;-85
2023/04/23 03:52:22;;;;;;;21.37;16.20;;;13.50;99.90;;;;;;4957015;28;20178;-85
2023/04/23 03:54:48;;;;;;;20.23;15.90;;;13.50;99.90;;;;;;4957693;28;20221;-85
2023/04/23 03:57:13;;;;;;;17.80;14.13;;;13.50;99.90;;;;;;4956704;29;20179;-85
2023/04/23 03:59:39;;;;;;;16.40;13.03;;;13.50;99.90;;;;;;4957976;28;20628;-84
2023/04/23 04:02:05;;;;;;;18.37;14.23;;;13.50;99.90;;;;;;4957874;28;20698;-85
2023/04/23 04:04:31;;;;;;;19.60;14.67;;;13.40;99.90;;;;;;4957983;28;20170;-85
2023/04/23 04:06:57;;;;;;;18.53;13.60;;;13.30;99.90;;;;;;4956440;29;20430;-85
2023/04/23 04:09:22;;;;;;;22.63;15.83;;;13.40;99.90;;;;;;4969841;28;20670;-87
2023/04/23 04:11:48;;;;;;;20.80;15.60;;;13.40;99.90;;;;;;4972661;28;20434;-85
2023/04/23 04:14:13;;;;;;;28.37;17.87;;;13.40;99.90;;;;;;4956570;29;20219;-84
2023/04/23 04:16:39;;;;;;;22.17;14.83;;;13.50;99.90;;;;;;4957637;28;20254;-85
2023/04/23 04:19:06;;;;;;;24.30;17.27;;;13.30;99.90;;;;;;4958023;28;20178;-87
2023/04/23 04:21:33;;;;;;;22.40;16.30;;;13.20;99.90;;;;;;4957944;28;20175;-85
2023/04/23 04:24:03;;;;;;;24.10;17.17;;;13.20;99.90;;;;;;4956591;29;20513;-84
2023/04/23 04:26:31;;;;;;;26.20;17.37;;;13.10;99.90;;;;;;4957094;28;20426;-83
2023/04/23 04:28:57;;;;;;;23.37;15.57;;;13.10;99.90;;;;;;4957614;28;20433;-84
2023/04/23 04:31:22;;;;;;;21.63;15.00;;;13.10;99.90;;;;;;4957098;28;20497;-83
2023/04/23 04:33:48;;;;;;;21.00;15.43;;;13.10;99.90;;;;;;4956832;28;20935;-83
2023/04/23 04:36:13;;;;;;;21.60;15.50;;;13.10;99.90;;;;;;4957628;28;20179;-84
2023/04/23 04:38:40;;;;;;;21.20;16.67;;;13.00;99.90;;;;;;4957618;28;20174;-85
2023/04/23 04:41:06;;;;;;;19.03;13.63;;;13.00;99.90;;;;;;4957313;28;20175;-84
2023/04/23 04:43:33;;;;;;;19.87;15.67;;;12.90;99.90;;;;;;4957597;28;20427;-83
2023/04/23 04:45:59;;;;;;;17.13;13.60;;;12.90;99.90;;;;;;4957512;28;20442;-84
2023/04/23 04:48:24;;;;;;;17.37;12.53;;;13.00;99.90;;;;;;4957494;28;20458;-83
2023/04/23 04:50:51;;;;;;;18.47;13.50;;;13.10;99.90;;;;;;4957428;28;20177;-85
2023/04/23 04:53:16;;;;;;;15.50;11.20;;;13.20;99.90;;;;;;4957328;28;20290;-84
2023/04/23 04:55:42;;;;;;;15.10;10.33;;;13.20;99.90;;;;;;4917751;28;20528;-84
2023/04/23 04:58:07;;;;;;;13.60;9.73;;;13.20;99.90;;;;;;4957360;29;20233;-85
2023/04/23 05:00:33;;;;;;;11.40;8.40;;;13.20;99.90;;;;;;4957023;29;20238;-85
2023/04/23 05:02:59;;;;;;;17.23;9.30;;;13.20;85.10;;;;;;4955888;28;20179;-85
2023/04/23 05:05:26;;;;;;;10.70;6.70;;;13.20;48.20;;;;;;4957133;29;20173;-85
2023/04/23 05:07:53;;;;;;;9.93;8.05;;;13.20;46.20;;;;;;4956336;29;20422;-84
2023/04/23 05:10:19;;;;;;;13.90;7.80;;;13.30;41.10;;;;;;4956759;29;20171;-86
2023/04/23 05:12:45;;;;;;;10.90;8.13;;;13.40;4.00;;;;;;4956860;29;20422;-85
2023/04/23 05:15:12;;;;;;;10.90;7.37;;;13.40;1.00;;;;;;4960050;29;20808;-85
2023/04/23 05:17:41;;;;;;;11.03;7.40;;;13.40;1.00;;;;;;4958323;29;20447;-85
2023/04/23 05:20:10;;;;;;;11.53;7.00;;;13.40;1.00;;;;;;4957015;29;20424;-84
2023/04/23 05:22:39;;;;;;;8.90;6.23;;;13.30;1.00;;;;;;4956867;29;20771;-84
2023/04/23 05:25:06;;;;;;;7.43;4.10;;;13.20;1.00;;;;;;4956391;29;20418;-84
2023/04/23 05:27:31;;;;;;;7.80;5.33;;;13.20;1.00;;;;;;4956807;29;20430;-85
2023/04/23 05:29:58;;;;;;;8.03;5.20;;;13.20;1.00;;;;;;4956634;29;20423;-82
2023/04/23 05:32:24;;;;;;;8.27;5.80;;;13.20;1.00;;;;;;4956511;29;20546;-83
2023/04/23 05:34:49;;;;;;;6.30;4.73;;;13.10;1.00;;;;;;4956540;29;20969;-83
2023/04/23 05:37:15;;;;;;;6.30;4.63;;;13.10;1.00;;;;;;4956484;29;20446;-83
2023/04/23 05:39:40;;;;;;;6.17;4.23;;;13.20;1.00;;;;;;4956173;29;20245;-83
2023/04/23 05:42:06;;;;;;;5.80;4.77;;;13.20;1.00;;;;;;4956460;29;20176;-82
2023/04/23 05:44:31;;;;;;;6.80;4.87;;;13.20;1.00;;;;;;4956427;29;20175;-83
2023/04/23 05:46:57;;;;;;;6.50;4.33;;;13.30;1.00;;;;;;4956393;29;20177;-84
2023/04/23 05:49:22;;;;;;;5.17;3.50;;;13.30;1.00;;;;;;4956255;29;20642;-85
2023/04/23 05:51:48;;;;;;;4.70;2.83;;;13.30;1.00;;;;;;4956276;29;20207;-85
2023/04/23 05:54:14;;;;;;;6.07;3.63;;;13.30;1.00;;;;;;4955818;29;20229;-85
2023/04/23 05:56:39;;;;;;;6.63;3.17;;;13.30;1.00;;;;;;4956066;29;20424;-84
2023/04/23 05:59:05;;;;;;;5.67;3.30;;;13.20;1.00;;;;;;4956194;29;20226;-84
2023/04/23 06:01:30;;;;;;;7.43;3.90;;;13.20;1.00;;;;;;4938051;29;20227;-85
2023/04/23 06:03:56;;;;;;;5.50;4.07;;;13.30;1.00;;;;;;4937780;29;20225;-85
2023/04/23 06:06:22;;;;;;;5.77;3.90;;;13.30;1.00;;;;;;4955128;29;20258;-85
2023/04/23 06:08:49;;;;;;;7.20;4.07;;;13.30;1.00;;;;;;4954641;29;20176;-84
2023/04/23 06:11:23;;;;;;;5.93;3.87;;;13.30;1.00;;;;;;4954025;29;20179;-84
2023/04/23 06:13:49;;;;;;;4.83;2.90;;;13.30;1.00;;;;;;4937305;29;20483;-84
2023/04/23 06:16:16;;;;;;;6.37;4.10;;;13.30;1.00;;;;;;4945663;28;20511;-83
2023/04/23 06:18:42;;;;;;;8.30;4.33;;;13.30;99.90;;;;;;4907683;29;20422;-84
2023/04/23 06:21:16;;;;;;;5.60;3.60;;;13.30;99.90;;;;;;4953852;29;20518;-84
2023/04/23 06:23:52;;;;;;;6.90;5.03;;;13.40;99.90;;;;;;4952968;29;20446;-85
2023/04/23 06:26:17;;;;;;;5.90;5.00;;;13.30;1.00;;;;;;4937597;29;20418;-84
2023/04/23 06:28:45;;;;;;;6.13;4.87;;;13.40;1.00;;;;;;4937491;29;20942;-86
2023/04/23 06:31:11;;;;;;;8.20;4.90;;;13.30;1.00;;;;;;4937569;29;20266;-84
2023/04/23 06:33:36;;;;;;;7.93;4.37;;;13.30;1.00;;;;;;4954565;29;20544;-85
2023/04/23 06:36:03;;;;;;;7.37;5.03;;;13.30;1.00;;;;;;4937339;29;20835;-87
2023/04/23 06:38:28;;;;;;;6.63;5.00;;;13.30;1.00;;;;;;4937407;29;20179;-86
2023/04/23 06:40:54;;;;;;;7.00;4.50;;;13.30;1.00;;;;;;4954735;29;20450;-89
2023/04/23 06:43:20;;;;;;;6.63;4.97;;;13.20;1.00;;;;;;4937554;29;20177;-88
2023/04/23 06:45:45;;;;;;;6.80;4.50;;;13.20;1.00;;;;;;4954678;29;20762;-92
2023/04/23 06:48:11;;;;;;;6.50;3.80;;;13.30;1.00;;;;;;4953533;29;20191;-84
2023/04/23 06:50:37;;;;;;;9.33;5.17;;;13.20;1.00;;;;;;4954451;29;20539;-84
2023/04/23 06:53:02;;;;;;;7.50;4.00;;;13.20;1.00;;;;;;4954358;29;20210;-85
2023/04/23 06:55:28;;;;;;;8.17;5.13;;;13.20;1.00;;;;;;4954100;29;20530;-85
2023/04/23 06:57:54;;;;;;;8.37;3.50;;;13.30;1.00;;;;;;4954416;29;20183;-85
2023/04/23 07:00:23;;;;;;;7.87;4.87;;;13.40;1.00;;;;;;4919317;29;1019152;-85
2023/04/23 07:02:49;;;;;;;7.37;5.07;;;13.40;1.00;;;;;;4953828;29;20454;-85
2023/04/23 07:05:15;;;;;;;5.43;4.40;;;13.50;1.00;;;;;;4954964;29;20988;-86
2023/04/23 07:07:42;;;;;;;7.13;4.20;;;13.40;1.00;;;;;;4954840;29;20427;-85
2023/04/23 07:10:09;;;;;;;7.63;3.60;;;13.60;1.00;;;;;;4937482;29;20964;-83
2023/04/23 07:12:35;;;;;;;7.60;3.70;;;13.80;1.00;;;;;;4933347;29;20788;-86
2023/04/23 07:15:01;;;;;;;5.13;3.20;;;13.80;99.90;;;;;;4936919;29;20436;-89
2023/04/23 07:17:26;;;;;;;4.87;3.10;;;13.70;99.90;;;;;;4898664;29;20490;-89
2023/04/23 07:19:52;;;;;;;6.53;3.60;;;13.60;76.30;;;;;;4937330;29;20247;-89
2023/04/23 07:22:17;;;;;;;4.10;2.73;;;13.70;1.00;;;;;;4936774;29;20645;-88
2023/04/23 07:24:46;;;;;;;5.50;2.57;;;13.80;1.00;;;;;;4952973;29;20172;-88
2023/04/23 07:27:11;;;;;;;2.50;1.60;;;13.80;99.90;;;;;;4955875;28;20175;-88
2023/04/23 07:29:37;;;;;;;3.97;2.27;;;13.80;99.90;;;;;;4958375;29;20412;-87
2023/04/23 07:32:02;;;;;;;3.33;2.20;;;13.90;1.00;;;;;;4941083;29;20186;-88
2023/04/23 07:34:28;;;;;;;3.70;2.13;;;13.90;40.80;;;;;;4941047;29;20571;-88
2023/04/23 07:36:55;;;;;;;4.70;2.70;;;14.00;1.00;;;;;;4958301;29;20177;-87
2023/04/23 07:39:20;;;;;;;5.43;2.40;;;14.00;1.00;;;;;;4940676;29;20190;-88
2023/04/23 07:41:46;;;;;;;4.10;2.83;;;14.10;1.00;;;;;;4956921;29;20421;-87
2023/04/23 07:44:11;;;;;;;6.00;3.23;;;14.20;54.10;;;;;;4956849;29;20539;-87
2023/04/23 07:46:37;;;;;;;3.90;1.87;;;14.20;99.90;;;;;;4956836;29;20227;-89
2023/04/23 07:49:02;;;;;;;4.80;2.10;;;14.30;99.90;;;;;;4958531;29;20176;-89
2023/04/23 07:51:29;;;;;;;3.27;2.10;;;14.40;1.00;;;;;;4941007;29;20177;-88
2023/04/23 07:53:55;;;;;;;5.90;3.03;;;14.60;5.80;;;;;;4940788;29;20216;-90
2023/04/23 07:56:21;;;;;;;3.73;1.90;;;15.00;99.90;;;;;;4940779;29;20425;-90
2023/04/23 07:58:47;;;;;;;4.03;2.17;;;15.20;1.00;;;;;;4957995;28;20930;-87
2023/04/23 08:01:13;;;;;;;3.73;2.47;;;15.40;99.90;;;;;;4957538;29;20517;-84
2023/04/23 08:03:39;;;;;;;4.30;2.53;;;15.50;1.00;;;;;;4957673;29;20170;-84
2023/04/23 08:06:05;;;;;;;3.60;2.37;;;15.70;1.00;;;;;;4957640;29;20421;-84
2023/04/23 08:08:30;;;;;;;3.20;2.03;;;15.70;1.00;;;;;;4939861;29;20695;-85
2023/04/23 08:10:56;;;;;;;3.57;1.60;;;15.70;1.00;;;;;;4957258;29;20429;-83
2023/04/23 08:13:22;;;;;;;4.13;2.60;;;15.90;1.00;;;;;;4957638;29;20223;-85
2023/04/23 08:15:47;;;;;;;3.00;2.50;;;16.20;1.00;;;;;;4940494;29;20184;-85
2023/04/23 08:18:14;;;;;;;3.80;2.00;;;16.60;1.00;;;;;;4918616;28;20313;-85
2023/04/23 08:20:40;;;;;;;4.67;2.80;;;16.90;99.90;;;;;;4977337;28;20420;-84
2023/04/23 08:23:08;;;;;;;4.80;2.67;;;17.20;99.90;;;;;;4977203;28;20425;-85
2023/04/23 08:25:34;;;;;;;3.23;1.40;;;17.40;99.90;;;;;;4976743;28;20514;-85
2023/04/23 08:27:59;;;;;;;4.07;2.67;;;17.90;99.90;;;;;;4977072;28;20507;-83
2023/04/23 08:30:25;;;;;;;4.90;2.77;;;18.40;99.90;;;;;;4975779;28;20338;-83
2023/04/23 08:32:54;;;;;;;3.60;2.73;;;18.50;99.90;;;;;;4976984;28;20182;-84
2023/04/23 08:35:21;;;;;;;4.20;2.97;;;18.70;97.10;;;;;;4959622;28;20651;-85
2023/04/23 08:37:46;;;;;;;5.47;2.70;;;18.50;70.00;;;;;;4976708;28;20419;-86
2023/04/23 08:40:12;;;;;;;4.33;3.00;;;18.60;72.10;;;;;;4975293;28;20951;-83
2023/04/23 08:42:56;;;;;;;5.27;3.13;;;18.60;70.10;;;;;;4968648;28;20205;-81
2023/04/23 08:45:22;;;;;;;4.70;2.40;;;18.50;48.60;;;;;;4954466;29;20202;-78
2023/04/23 08:47:48;;;;;;;7.43;3.00;;;18.30;25.70;;;;;;4955498;28;20446;-84
2023/04/23 08:50:17;;;;;;;5.20;2.93;;;18.00;27.10;;;;;;4957259;29;20433;-81
2023/04/23 08:52:52;;;;;;;3.40;2.60;;;18.00;32.30;;;;;;4957007;29;20184;-81
2023/04/23 08:55:18;;;;;;;3.70;3.13;;;17.90;39.60;;;;;;4956787;29;20963;-84
2023/04/23 08:57:45;;;;;;;4.23;3.10;;;17.90;40.20;;;;;;4956621;29;20779;-87
2023/04/23 09:00:12;;;;;;;5.40;3.97;;;18.00;49.20;;;;;;4956832;29;20749;-80
2023/04/23 09:02:41;;;;;;;4.03;3.27;;;18.10;53.80;;;;;;4956398;29;20514;-80
2023/04/23 09:05:07;;;;;;;6.90;4.50;;;18.40;60.10;;;;;;4956491;29;20425;-81
2023/04/23 09:07:34;;;;;;;4.07;3.23;;;19.00;62.50;;;;;;4956563;29;20778;-79
2023/04/23 09:10:07;;;;;;;6.50;2.93;;;20.10;81.90;;;;;;4956040;29;20431;-79
2023/04/23 09:12:37;;;;;;;5.97;3.60;;;21.10;41.90;;;;;;4956370;29;20492;-81
2023/04/23 09:15:09;;;;;;;4.20;3.03;;;22.00;1.00;;;;;;4939035;29;20447;-79
2023/04/23 09:17:36;;;;;;;5.00;3.33;;;22.50;1.00;;;;;;4956233;29;20907;-78
2023/04/23 09:20:02;;;;;;;4.40;3.27;;;22.90;1.00;;;;;;4954586;29;20791;-78
2023/04/23 09:22:39;;;;;;;5.77;4.30;;;23.20;1.00;;;;;;4955623;28;20816;-78
2023/04/23 09:25:06;;;;;;;4.63;3.73;;;23.60;1.00;;;;;;4915844;28;20839;-80
2023/04/23 09:27:32;;;;;;;5.73;3.63;;;24.10;1.00;;;;;;4956225;29;20778;-79
2023/04/23 09:30:02;;;;;;;4.73;3.53;;;24.50;1.00;;;;;;4956102;29;20459;-79
2023/04/23 09:32:32;;;;;;;4.70;3.93;;;24.60;1.00;;;;;;4956063;29;20193;-80
2023/04/23 09:34:58;;;;;;;4.23;3.80;;;24.50;1.00;;;;;;4955884;29;20468;-79
2023/04/23 09:37:27;;;;;;;3.90;3.50;;;24.40;1.00;;;;;;4955676;29;20423;-81
2023/04/23 09:39:55;;;;;;;5.00;3.80;;;25.00;1.00;;;;;;4943190;29;20181;-80
2023/04/23 09:42:22;;;;;;;4.30;3.90;;;25.50;1.00;;;;;;4955493;28;20449;-79
2023/04/23 09:45:11;;;;;;;5.20;3.87;;;26.20;1.00;;;;;;4955529;29;20456;-80
2023/04/23 09:47:47;;;;;;;6.50;5.87;;;26.80;1.00;;;;;;4938084;28;21006;-78
2023/04/23 09:50:13;;;;;;;6.57;5.90;;;27.30;1.00;;;;;;4954353;28;20799;-80
2023/04/23 09:52:39;;;;;;;6.57;5.70;;;27.50;1.00;;;;;;4955586;29;20413;-80
2023/04/23 09:55:05;;;;;;;7.03;5.20;;;27.50;1.00;;;;;;4954920;29;20196;-79
2023/04/23 09:57:39;;;;;;;4.40;4.00;;;27.70;1.00;;;;;;4954293;28;20516;-81
2023/04/23 10:00:17;;;;;;;4.30;3.90;;;28.20;1.00;;;;;;4954112;29;20473;-80
2023/04/23 10:02:50;;;;;;;3.90;3.50;;;27.70;1.00;;;;;;4953682;29;20945;-78
2023/04/23 10:05:21;;;;;;;4.03;3.63;;;28.00;1.00;;;;;;4955103;29;20416;-79
2023/04/23 10:07:50;;;;;;;4.60;4.13;;;28.50;1.00;;;;;;4955233;29;20967;-79
2023/04/23 10:10:17;;;;;;;4.30;3.83;;;28.70;1.00;;;;;;4954772;29;20445;-79
2023/04/23 10:12:43;;;;;;;6.30;5.03;;;28.90;1.00;;;;;;4953739;29;20428;-79
2023/04/23 10:15:13;;;;;;;5.83;4.60;;;28.90;1.00;;;;;;4955018;29;20839;-78
2023/04/23 10:17:39;;;;;;;4.50;4.10;;;28.90;1.00;;;;;;4954898;29;20204;-79
2023/04/23 10:20:07;;;;;;;5.03;3.93;;;29.30;1.00;;;;;;4953488;29;20436;-78
2023/04/23 10:22:33;;;;;;;5.43;4.50;;;29.60;1.00;;;;;;4954737;29;20912;-79
2023/04/23 10:25:02;;;;;;;5.90;4.63;;;30.00;1.00;;;;;;4954533;29;20952;-78
2023/04/23 10:27:30;;;;;;;4.67;4.27;;;29.90;1.00;;;;;;4954872;29;20441;-78
2023/04/23 10:30:02;;;;;;;4.73;4.13;;;29.90;1.00;;;;;;4954734;29;20421;-79
2023/04/23 10:32:29;;;;;;;4.17;3.87;;;30.00;1.00;;;;;;4954908;29;20420;-77
2023/04/23 10:34:55;;;;;;;5.07;4.07;;;30.40;1.00;;;;;;4954412;29;20604;-78
2023/04/23 10:37:21;;;;;;;6.73;4.20;;;30.60;1.00;;;;;;4954602;29;20421;-79
2023/04/23 10:39:52;;;;;;;4.97;4.57;;;30.60;1.00;;;;;;4954492;29;20183;-78
2023/04/23 10:42:18;;;;;;;6.90;4.70;;;31.10;1.00;;;;;;4954517;29;20784;-78
2023/04/23 10:44:43;;;;;;;4.97;4.47;;;31.40;1.00;;;;;;4954384;29;20428;-78
2023/04/23 10:47:19;;;;;;;6.80;4.47;;;31.60;1.00;;;;;;4954702;29;20180;-78
2023/04/23 10:49:45;;;;;;;4.90;4.40;;;32.00;1.00;;;;;;4934946;28;20670;-77
2023/04/23 10:52:14;;;;;;;5.07;4.57;;;32.30;1.00;;;;;;4956146;28;20424;-78
2023/04/23 10:54:42;;;;;;;5.43;4.93;;;32.40;1.00;;;;;;4973070;28;20234;-78
2023/04/23 10:57:09;;;;;;;6.70;5.50;;;32.10;1.00;;;;;;4973725;28;20443;-78
2023/04/23 10:59:38;;;;;;;8.60;6.13;;;31.80;1.00;;;;;;4955941;28;20436;-78
2023/04/23 11:02:09;;;;;;;6.03;5.53;;;31.90;1.00;;;;;;4973494;28;20554;-78
2023/04/23 11:04:40;;;;;;;7.30;6.67;;;31.80;1.00;;;;;;4973563;28;20435;-77
2023/04/23 11:07:10;;;;;;;6.73;6.10;;;31.60;1.00;;;;;;4956243;28;20431;-77
2023/04/23 11:09:46;;;;;;;6.87;6.27;;;31.50;1.00;;;;;;4971580;28;20446;-77
2023/04/23 11:12:29;;;;;;;6.80;6.20;;;31.30;1.00;;;;;;4956141;28;20431;-77
2023/04/23 11:14:56;;;;;;;7.73;7.03;;;31.10;1.00;;;;;;4973602;28;20491;-77
2023/04/23 11:17:30;;;;;;;8.60;7.77;;;31.00;1.00;;;;;;4956239;28;20455;-78
2023/04/23 11:20:12;;;;;;;7.93;7.30;;;30.80;1.00;;;;;;4971658;28;20427;-78
2023/04/23 11:22:39;;;;;;;7.67;6.97;;;30.80;1.00;;;;;;4955989;28;20951;-78
2023/04/23 11:25:09;;;;;;;7.03;6.47;;;30.90;1.00;;;;;;4955319;28;20436;-77
2023/04/23 11:27:38;;;;;;;7.27;6.73;;;31.30;1.00;;;;;;4973327;28;20752;-77
2023/04/23 11:30:04;;;;;;;7.00;6.40;;;31.60;1.00;;;;;;4973424;28;20478;-76
2023/04/23 11:32:31;;;;;;;6.70;6.20;;;31.60;1.00;;;;;;4973153;28;20466;-78
2023/04/23 11:34:59;;;;;;;6.47;5.83;;;31.70;1.00;;;;;;4973076;28;20487;-78
2023/04/23 11:37:24;;;;;;;6.20;5.70;;;31.80;1.00;;;;;;4973156;28;20416;-78
2023/04/23 11:39:50;;;;;;;7.30;6.60;;;32.20;1.00;;;;;;4972631;28;20470;-77
2023/04/23 11:42:18;;;;;;;5.93;5.40;;;32.50;1.00;;;;;;4973262;28;20504;-78
2023/04/23 11:44:45;;;;;;;6.23;5.63;;;32.60;1.00;;;;;;4973359;28;20226;-78
2023/04/23 11:47:12;;;;;;;5.43;4.87;;;32.80;1.00;;;;;;4973144;28;20477;-77
2023/04/23 11:49:39;;;;;;;5.90;5.40;;;32.90;1.00;;;;;;4972891;28;20807;-77
2023/04/23 11:52:05;;;;;;;5.70;5.20;;;33.10;1.00;;;;;;4955858;28;20416;-78
2023/04/23 11:54:31;;;;;;;4.70;4.30;;;33.10;1.00;;;;;;4972425;28;20487;-78
2023/04/23 11:57:00;;;;;;;4.20;3.80;;;33.40;1.00;;;;;;4972987;28;20624;-77
2023/04/23 11:59:26;;;;;;;4.97;4.53;;;33.30;1.00;;;;;;4931922;28;20779;-78
2023/04/23 12:01:57;;;;;;;4.93;4.53;;;33.40;1.00;;;;;;4955442;28;20550;-78
2023/04/23 12:04:25;;;;;;;6.60;4.53;;;33.30;1.00;;;;;;4972885;28;20916;-78
2023/04/23 12:06:52;;;;;;;6.90;4.03;;;33.80;1.00;;;;;;4972972;28;20424;-77
2023/04/23 12:09:38;;;;;;;4.67;4.20;;;33.60;1.00;;;;;;4972557;28;20427;-78
2023/04/23 12:12:03;;;;;;;4.77;4.37;;;33.30;1.00;;;;;;4973746;28;20996;-77
2023/04/23 12:14:29;;;;;;;3.93;3.63;;;33.50;1.00;;;;;;4975593;28;20826;-77
2023/04/23 12:16:56;;;;;;;4.53;4.13;;;33.30;1.00;;;;;;4954110;28;20495;-79
2023/04/23 12:19:29;;;;;;;3.57;3.27;;;33.20;1.00;;;;;;4955231;28;20189;-79
2023/04/23 12:22:00;;;;;;;2.40;2.20;;;33.10;1.00;;;;;;4955708;28;20483;-78
2023/04/23 12:24:27;;;;;;;3.20;3.00;;;33.10;1.00;;;;;;4955612;29;20430;-79
2023/04/23 12:26:59;;;;;;;3.47;2.53;;;33.30;1.00;;;;;;4956832;29;20464;-78
2023/04/23 12:29:25;;;;;;;3.93;2.90;;;33.40;1.00;;;;;;4956840;29;20418;-79
2023/04/23 12:31:56;;;;;;;3.90;3.20;;;33.60;1.00;;;;;;4956634;29;20408;-80
2023/04/23 12:34:21;;;;;;;3.80;3.20;;;33.80;1.00;;;;;;4955420;29;21047;-78
2023/04/23 12:36:51;;;;;;;2.80;2.57;;;34.00;1.00;;;;;;4955326;29;20432;-79
2023/04/23 12:39:34;;;;;;;3.40;3.10;;;34.20;1.00;;;;;;4939113;29;20177;-79
2023/04/23 12:42:05;;;;;;;2.60;2.20;;;34.40;1.00;;;;;;4955393;29;20482;-79
2023/04/23 12:44:33;;;;;;;3.47;2.30;;;34.10;1.00;;;;;;4956804;29;20417;-80
2023/04/23 12:47:04;;;;;;;3.50;2.27;;;33.80;1.00;;;;;;4956556;29;20553;-80